createdAt,value
2018-12-17T00:01:00.367Z,0
2018-12-17T00:02:08.432Z,0
2018-12-17T00:03:16.494Z,0
2018-12-17T00:04:24.539Z,0
2018-12-17T00:05:32.578Z,0
2018-12-17T00:06:40.631Z,0
2018-12-17T00:07:48.679Z,0
2018-12-17T00:08:56.740Z,0
2018-12-17T00:10:04.780Z,0
2018-12-17T00:11:12.833Z,0
2018-12-17T00:12:20.882Z,0
2018-12-17T00:13:28.933Z,0
2018-12-17T00:14:37.001Z,0
2018-12-17T00:15:45.013Z,0
2018-12-17T00:16:53.098Z,0
2018-12-17T00:18:01.157Z,0
2018-12-17T00:19:09.197Z,0
2018-12-17T00:20:17.253Z,0
2018-12-17T00:21:25.277Z,0
2018-12-17T00:22:33.392Z,0
2018-12-17T00:23:41.445Z,0
2018-12-17T00:24:49.456Z,0
2018-12-17T00:25:57.529Z,0
2018-12-17T00:27:05.567Z,0
2018-12-17T00:28:13.604Z,0
2018-12-17T00:29:21.649Z,0
2018-12-17T00:30:29.709Z,0
2018-12-17T00:31:37.783Z,0
2018-12-17T00:32:45.788Z,0
2018-12-17T00:33:53.867Z,0
2018-12-17T00:35:01.928Z,0
2018-12-17T00:36:09.993Z,0
2018-12-17T00:37:18.019Z,0
2018-12-17T00:38:26.059Z,0
2018-12-17T00:39:34.130Z,0
2018-12-17T00:40:42.187Z,0
2018-12-17T00:41:50.233Z,0
2018-12-17T00:42:58.278Z,0
2018-12-17T00:44:06.325Z,0
2018-12-17T00:45:14.398Z,0
2018-12-17T00:46:22.445Z,0
2018-12-17T00:47:30.495Z,0
2018-12-17T00:48:38.525Z,0
2018-12-17T00:49:46.597Z,0
2018-12-17T00:50:54.631Z,0
2018-12-17T00:52:02.690Z,0
2018-12-17T00:53:10.740Z,0
2018-12-17T00:54:18.791Z,0
2018-12-17T00:55:26.849Z,0
2018-12-17T00:56:34.883Z,0
2018-12-17T00:57:42.947Z,0
2018-12-17T00:58:51.007Z,0
2018-12-17T00:59:59.053Z,0
2018-12-17T01:01:07.107Z,0
2018-12-17T01:02:15.122Z,0
2018-12-17T01:03:23.206Z,0
2018-12-17T01:04:31.251Z,0
2018-12-17T01:05:39.301Z,0
2018-12-17T01:06:47.349Z,0
2018-12-17T01:07:55.399Z,0
2018-12-17T01:09:03.458Z,0
2018-12-17T01:10:11.526Z,0
2018-12-17T01:11:19.566Z,0
2018-12-17T01:12:27.636Z,0
2018-12-17T01:13:35.639Z,0
2018-12-17T01:14:43.719Z,0
2018-12-17T01:15:51.760Z,0
2018-12-17T01:16:59.819Z,0
2018-12-17T01:18:07.864Z,0
2018-12-17T01:19:15.892Z,0
2018-12-17T01:20:23.968Z,0
2018-12-17T01:21:32.028Z,0
2018-12-17T01:22:40.086Z,0
2018-12-17T01:23:48.132Z,0
2018-12-17T01:24:56.184Z,0
2018-12-17T01:26:04.239Z,0
2018-12-17T01:27:12.262Z,0
2018-12-17T01:28:22.223Z,0
2018-12-17T01:29:28.379Z,0
2018-12-17T01:30:36.442Z,0
2018-12-17T01:31:44.463Z,0
2018-12-17T01:32:52.540Z,0
2018-12-17T01:34:00.580Z,0
2018-12-17T01:35:08.636Z,0
2018-12-17T01:36:16.671Z,0
2018-12-17T01:37:24.724Z,0
2018-12-17T01:38:32.789Z,0
2018-12-17T01:39:40.846Z,0
2018-12-17T01:40:48.886Z,0
2018-12-17T01:41:56.935Z,0
2018-12-17T01:43:04.974Z,0
2018-12-17T01:44:13.041Z,0
2018-12-17T01:45:21.087Z,0
2018-12-17T01:46:29.144Z,0
2018-12-17T01:47:37.193Z,0
2018-12-17T01:48:45.229Z,0
2018-12-17T01:49:53.293Z,0
2018-12-17T01:51:01.357Z,0
2018-12-17T01:52:09.399Z,0
2018-12-17T01:53:17.457Z,0
2018-12-17T01:54:25.475Z,0
2018-12-17T01:55:33.552Z,0
2018-12-17T01:56:41.610Z,0
2018-12-17T01:57:49.663Z,0
2018-12-17T01:58:57.699Z,0
2018-12-17T02:00:05.730Z,0
2018-12-17T02:01:13.813Z,0
2018-12-17T02:02:21.863Z,0
2018-12-17T02:03:29.895Z,0
2018-12-17T02:04:37.943Z,0
2018-12-17T02:05:46.002Z,0
2018-12-17T02:06:54.068Z,0
2018-12-17T02:08:02.123Z,0
2018-12-17T02:09:10.170Z,0
2018-12-17T02:10:18.218Z,0
2018-12-17T02:11:26.278Z,0
2018-12-17T02:12:34.316Z,0
2018-12-17T02:13:42.352Z,0
2018-12-17T02:14:50.418Z,0
2018-12-17T02:15:58.487Z,0
2018-12-17T02:17:06.521Z,0
2018-12-17T02:18:14.573Z,0
2018-12-17T02:19:22.636Z,0
2018-12-17T02:20:30.694Z,0
2018-12-17T02:21:38.735Z,0
2018-12-17T02:22:46.776Z,0
2018-12-17T02:23:54.824Z,0
2018-12-17T02:25:02.891Z,0
2018-12-17T02:26:10.935Z,0
2018-12-17T02:27:18.985Z,0
2018-12-17T02:28:27.019Z,0
2018-12-17T02:29:35.060Z,0
2018-12-17T02:30:43.125Z,0
2018-12-17T02:31:51.182Z,0
2018-12-17T02:32:59.227Z,0
2018-12-17T02:34:07.314Z,0
2018-12-17T02:35:15.309Z,0
2018-12-17T02:36:23.381Z,0
2018-12-17T02:37:31.442Z,0
2018-12-17T02:38:39.506Z,0
2018-12-17T02:39:47.535Z,0
2018-12-17T02:40:55.558Z,0
2018-12-17T02:42:03.632Z,0
2018-12-17T02:43:11.688Z,0
2018-12-17T02:44:19.752Z,0
2018-12-17T02:45:27.799Z,0
2018-12-17T02:46:35.829Z,0
2018-12-17T02:47:43.911Z,0
2018-12-17T02:48:51.949Z,0
2018-12-17T02:49:59.997Z,0
2018-12-17T02:51:08.043Z,0
2018-12-17T02:52:16.103Z,0
2018-12-17T02:53:24.164Z,0
2018-12-17T02:54:32.203Z,0
2018-12-17T02:55:40.256Z,0
2018-12-17T02:56:49.107Z,0
2018-12-17T02:57:56.346Z,0
2018-12-17T02:59:04.397Z,0
2018-12-17T03:00:12.459Z,0
2018-12-17T03:01:20.517Z,0
2018-12-17T03:02:28.561Z,0
2018-12-17T03:03:36.604Z,0
2018-12-17T03:04:44.665Z,0
2018-12-17T03:05:52.717Z,0
2018-12-17T03:07:00.766Z,0
2018-12-17T03:08:08.823Z,0
2018-12-17T03:09:16.883Z,0
2018-12-17T03:10:24.911Z,0
2018-12-17T03:11:32.959Z,0
2018-12-17T03:12:41.015Z,0
2018-12-17T03:13:49.055Z,0
2018-12-17T03:14:57.125Z,0
2018-12-17T03:16:05.145Z,0
2018-12-17T03:17:13.220Z,0
2018-12-17T03:18:21.278Z,0
2018-12-17T03:19:29.334Z,0
2018-12-17T03:20:37.371Z,0
2018-12-17T03:21:45.397Z,0
2018-12-17T03:22:53.472Z,0
2018-12-17T03:24:01.523Z,0
2018-12-17T03:25:09.574Z,0
2018-12-17T03:26:17.629Z,0
2018-12-17T03:27:25.653Z,0
2018-12-17T03:28:33.737Z,0
2018-12-17T03:29:41.781Z,0
2018-12-17T03:30:49.836Z,0
2018-12-17T03:31:57.875Z,0
2018-12-17T03:33:05.934Z,0
2018-12-17T03:34:13.997Z,0
2018-12-17T03:35:22.036Z,0
2018-12-17T03:36:30.088Z,0
2018-12-17T03:37:38.161Z,0
2018-12-17T03:38:46.184Z,0
2018-12-17T03:39:54.242Z,0
2018-12-17T03:41:02.299Z,0
2018-12-17T03:42:10.355Z,0
2018-12-17T03:43:18.386Z,0
2018-12-17T03:44:27.645Z,0
2018-12-17T03:45:34.483Z,0
2018-12-17T03:46:42.546Z,0
2018-12-17T03:47:50.684Z,0
2018-12-17T03:48:58.651Z,0
2018-12-17T03:50:06.698Z,0
2018-12-17T03:51:14.748Z,0
2018-12-17T03:52:22.808Z,0
2018-12-17T03:53:30.841Z,0
2018-12-17T03:54:38.901Z,0
2018-12-17T03:55:46.978Z,0
2018-12-17T03:56:54.990Z,0
2018-12-17T03:58:03.058Z,0
2018-12-17T03:59:11.105Z,0
2018-12-17T04:00:19.165Z,0
2018-12-17T04:01:27.209Z,0
2018-12-17T04:02:35.231Z,0
2018-12-17T04:03:43.304Z,0
2018-12-17T04:04:51.376Z,0
2018-12-17T04:05:59.428Z,0
2018-12-17T04:07:07.454Z,0
2018-12-17T04:08:15.489Z,0
2018-12-17T04:09:23.569Z,0
2018-12-17T04:10:31.609Z,0
2018-12-17T04:11:39.667Z,0
2018-12-17T04:12:47.705Z,0
2018-12-17T04:13:55.749Z,0
2018-12-17T04:15:03.818Z,0
2018-12-17T04:16:11.868Z,0
2018-12-17T04:17:19.922Z,0
2018-12-17T04:18:27.994Z,0
2018-12-17T04:19:36.004Z,0
2018-12-17T04:20:44.069Z,0
2018-12-17T04:21:52.964Z,0
2018-12-17T04:23:00.181Z,0
2018-12-17T04:24:08.232Z,0
2018-12-17T04:25:16.287Z,0
2018-12-17T04:26:24.324Z,0
2018-12-17T04:27:32.396Z,0
2018-12-17T04:28:40.430Z,0
2018-12-17T04:29:48.481Z,0
2018-12-17T04:30:56.538Z,0
2018-12-17T04:32:04.597Z,0
2018-12-17T04:33:12.641Z,0
2018-12-17T04:34:20.682Z,0
2018-12-17T04:35:28.739Z,0
2018-12-17T04:36:36.802Z,0
2018-12-17T04:37:44.839Z,0
2018-12-17T04:38:52.898Z,0
2018-12-17T04:40:00.940Z,0
2018-12-17T04:41:09.014Z,0
2018-12-17T04:42:17.040Z,0
2018-12-17T04:43:25.073Z,0
2018-12-17T04:44:33.138Z,0
2018-12-17T04:45:41.218Z,0
2018-12-17T04:46:49.261Z,0
2018-12-17T04:47:57.347Z,0
2018-12-17T04:49:05.339Z,0
2018-12-17T04:50:13.414Z,0
2018-12-17T04:51:21.448Z,0
2018-12-17T04:52:29.508Z,0
2018-12-17T04:53:37.569Z,0
2018-12-17T04:54:45.597Z,0
2018-12-17T04:55:53.677Z,0
2018-12-17T04:57:01.704Z,0
2018-12-17T04:58:09.764Z,0
2018-12-17T04:59:17.830Z,0
2018-12-17T05:00:25.847Z,0
2018-12-17T05:01:33.928Z,0
2018-12-17T05:02:41.977Z,0
2018-12-17T05:03:50.034Z,0
2018-12-17T05:04:58.078Z,0
2018-12-17T05:06:06.135Z,0
2018-12-17T05:07:14.175Z,0
2018-12-17T05:08:22.244Z,0
2018-12-17T05:09:30.291Z,0
2018-12-17T05:10:38.339Z,0
2018-12-17T05:11:46.402Z,0
2018-12-17T05:12:54.456Z,0
2018-12-17T05:14:02.505Z,0
2018-12-17T05:15:10.544Z,0
2018-12-17T05:16:18.590Z,0
2018-12-17T05:17:26.669Z,0
2018-12-17T05:18:34.695Z,0
2018-12-17T05:19:42.745Z,0
2018-12-17T05:20:50.811Z,0
2018-12-17T05:21:58.857Z,0
2018-12-17T05:23:06.910Z,0
2018-12-17T05:24:14.941Z,0
2018-12-17T05:25:23.008Z,0
2018-12-17T05:26:31.053Z,0
2018-12-17T05:27:39.116Z,0
2018-12-17T05:28:47.169Z,0
2018-12-17T05:29:55.192Z,0
2018-12-17T05:31:03.287Z,0
2018-12-17T05:32:11.333Z,0
2018-12-17T05:33:19.387Z,0
2018-12-17T05:34:27.458Z,0
2018-12-17T05:35:35.456Z,0
2018-12-17T05:36:43.538Z,0
2018-12-17T05:37:51.581Z,0
2018-12-17T05:38:59.624Z,0
2018-12-17T05:40:07.700Z,0
2018-12-17T05:41:15.716Z,0
2018-12-17T05:42:23.793Z,0
2018-12-17T05:43:31.845Z,0
2018-12-17T05:44:39.913Z,0
2018-12-17T05:45:47.943Z,0
2018-12-17T05:46:55.988Z,0
2018-12-17T05:48:04.051Z,0
2018-12-17T05:49:12.111Z,0
2018-12-17T05:50:20.159Z,0
2018-12-17T05:51:28.211Z,0
2018-12-17T05:52:36.255Z,0
2018-12-17T05:53:44.320Z,0
2018-12-17T05:54:52.358Z,0
2018-12-17T05:56:00.415Z,0
2018-12-17T05:57:08.464Z,0
2018-12-17T05:58:16.534Z,0
2018-12-17T05:59:28.517Z,0
2018-12-17T06:00:32.623Z,0
2018-12-17T06:01:40.677Z,0
2018-12-17T06:02:48.740Z,0
2018-12-17T06:03:56.781Z,0
2018-12-17T06:05:04.834Z,0
2018-12-17T06:06:12.879Z,0
2018-12-17T06:07:20.947Z,0
2018-12-17T06:08:28.982Z,0
2018-12-17T06:09:37.043Z,0
2018-12-17T06:10:45.071Z,0
2018-12-17T06:11:53.159Z,0
2018-12-17T06:13:01.206Z,0
2018-12-17T06:14:09.263Z,0
2018-12-17T06:15:17.328Z,0
2018-12-17T06:16:25.327Z,0
2018-12-17T06:17:33.398Z,0
2018-12-17T06:18:41.457Z,0
2018-12-17T06:19:49.509Z,0
2018-12-17T06:20:57.579Z,0
2018-12-17T06:22:05.581Z,0
2018-12-17T06:23:13.663Z,0
2018-12-17T06:24:21.720Z,0
2018-12-17T06:25:29.779Z,0
2018-12-17T06:26:37.839Z,0
2018-12-17T06:27:45.857Z,0
2018-12-17T06:28:53.928Z,0
2018-12-17T06:30:01.987Z,0
2018-12-17T06:31:10.069Z,0
2018-12-17T06:32:18.091Z,0
2018-12-17T06:33:26.136Z,0
2018-12-17T06:34:34.196Z,0
2018-12-17T06:35:42.248Z,0
2018-12-17T06:36:50.290Z,0
2018-12-17T06:37:58.358Z,0
2018-12-17T06:39:06.409Z,0
2018-12-17T06:40:14.451Z,0
2018-12-17T06:41:22.510Z,0
2018-12-17T06:42:30.569Z,0
2018-12-17T06:43:38.614Z,0
2018-12-17T06:44:46.663Z,0
2018-12-17T06:45:54.716Z,0
2018-12-17T06:47:02.776Z,0
2018-12-17T06:48:16.809Z,0
2018-12-17T06:49:18.874Z,0
2018-12-17T06:50:26.918Z,0
2018-12-17T06:51:34.961Z,0
2018-12-17T06:52:43.036Z,0
2018-12-17T06:53:51.086Z,0
2018-12-17T06:54:59.144Z,0
2018-12-17T06:56:07.188Z,0
2018-12-17T06:57:15.232Z,0
2018-12-17T06:58:23.291Z,0
2018-12-17T06:59:31.420Z,0
2018-12-17T07:00:39.407Z,0
2018-12-17T07:01:47.477Z,0
2018-12-17T07:02:55.478Z,0
2018-12-17T07:04:03.558Z,0
2018-12-17T07:05:11.622Z,0
2018-12-17T07:06:19.683Z,5
2018-12-17T07:07:27.705Z,5
2018-12-17T07:08:35.746Z,5
2018-12-17T07:09:43.809Z,5
2018-12-17T07:10:51.886Z,5
2018-12-17T07:11:59.923Z,5
2018-12-17T07:13:07.981Z,5
2018-12-17T07:14:16.026Z,5
2018-12-17T07:15:24.103Z,10
2018-12-17T07:16:32.143Z,10
2018-12-17T07:17:40.184Z,10
2018-12-17T07:18:48.246Z,10
2018-12-17T07:19:56.297Z,10
2018-12-17T07:21:04.345Z,10
2018-12-17T07:22:12.414Z,15
2018-12-17T07:23:20.496Z,15
2018-12-17T07:24:28.514Z,15
2018-12-17T07:25:36.561Z,15
2018-12-17T07:26:44.620Z,15
2018-12-17T07:27:52.704Z,20
2018-12-17T07:29:00.713Z,20
2018-12-17T07:30:08.771Z,20
2018-12-17T07:31:16.824Z,20
2018-12-17T07:32:24.865Z,20
2018-12-17T07:33:32.946Z,25
2018-12-17T07:34:40.983Z,25
2018-12-17T07:35:49.044Z,25
2018-12-17T07:36:57.098Z,30
2018-12-17T07:38:05.131Z,30
2018-12-17T07:39:13.197Z,35
2018-12-17T07:40:21.246Z,40
2018-12-17T07:41:29.315Z,40
2018-12-17T07:42:37.377Z,40
2018-12-17T07:43:45.384Z,45
2018-12-17T07:44:53.465Z,50
2018-12-17T07:46:01.547Z,50
2018-12-17T07:47:09.585Z,55
2018-12-17T07:48:17.624Z,60
2018-12-17T07:49:25.662Z,65
2018-12-17T07:50:33.732Z,65
2018-12-17T07:51:41.786Z,65
2018-12-17T07:52:49.834Z,70
2018-12-17T07:53:57.878Z,65
2018-12-17T07:55:05.929Z,65
2018-12-17T07:56:14.002Z,65
2018-12-17T07:57:22.043Z,65
2018-12-17T07:58:30.089Z,65
2018-12-17T07:59:38.148Z,65
2018-12-17T08:00:46.211Z,65
2018-12-17T08:01:54.247Z,70
2018-12-17T08:03:02.301Z,70
2018-12-17T08:04:10.365Z,70
2018-12-17T08:05:18.437Z,70
2018-12-17T08:06:26.536Z,70
2018-12-17T08:07:34.523Z,75
2018-12-17T08:08:42.584Z,75
2018-12-17T08:09:50.638Z,75
2018-12-17T08:10:58.676Z,75
2018-12-17T08:12:06.733Z,75
2018-12-17T08:13:14.794Z,75
2018-12-17T08:14:22.852Z,75
2018-12-17T08:15:30.894Z,70
2018-12-17T08:16:38.949Z,70
2018-12-17T08:17:47.001Z,65
2018-12-17T08:18:55.040Z,65
2018-12-17T08:20:03.105Z,70
2018-12-17T08:21:11.171Z,75
2018-12-17T08:22:19.225Z,80
2018-12-17T08:23:27.279Z,80
2018-12-17T08:24:35.296Z,80
2018-12-17T08:25:43.392Z,85
2018-12-17T08:26:51.434Z,85
2018-12-17T08:27:59.492Z,90
2018-12-17T08:29:07.542Z,90
2018-12-17T08:30:15.576Z,95
2018-12-17T08:31:23.639Z,95
2018-12-17T08:32:31.708Z,95
2018-12-17T08:33:39.757Z,95
2018-12-17T08:34:47.797Z,100
2018-12-17T08:35:55.840Z,100
2018-12-17T08:37:03.925Z,100
2018-12-17T08:38:11.971Z,100
2018-12-17T08:39:20.024Z,105
2018-12-17T08:40:28.071Z,105
2018-12-17T08:41:36.132Z,105
2018-12-17T08:42:44.180Z,105
2018-12-17T08:43:52.227Z,105
2018-12-17T08:45:00.271Z,105
2018-12-17T08:46:08.342Z,105
2018-12-17T08:47:16.389Z,105
2018-12-17T08:48:24.449Z,110
2018-12-17T08:49:32.499Z,115
2018-12-17T08:50:40.577Z,120
2018-12-17T08:51:48.623Z,130
2018-12-17T08:52:56.659Z,135
2018-12-17T08:54:04.724Z,145
2018-12-17T08:55:12.774Z,150
2018-12-17T08:56:20.824Z,145
2018-12-17T08:57:28.874Z,140
2018-12-17T08:58:36.942Z,135
2018-12-17T08:59:44.976Z,130
2018-12-17T09:00:53.044Z,130
2018-12-17T09:02:01.100Z,125
2018-12-17T09:03:09.156Z,125
2018-12-17T09:04:17.208Z,125
2018-12-17T09:05:25.235Z,125
2018-12-17T09:06:33.324Z,120
2018-12-17T09:07:41.373Z,115
2018-12-17T09:08:49.427Z,115
2018-12-17T09:09:57.467Z,115
2018-12-17T09:11:05.499Z,115
2018-12-17T09:12:13.589Z,120
2018-12-17T09:13:21.643Z,125
2018-12-17T09:14:29.678Z,125
2018-12-17T09:15:37.748Z,125
2018-12-17T09:16:45.780Z,125
2018-12-17T09:17:53.870Z,125
2018-12-17T09:19:01.914Z,130
2018-12-17T09:20:09.965Z,130
2018-12-17T09:21:18.021Z,140
2018-12-17T09:22:26.075Z,150
2018-12-17T09:23:34.130Z,165
2018-12-17T09:24:42.187Z,170
2018-12-17T09:25:50.227Z,180
2018-12-17T09:26:58.323Z,190
2018-12-17T09:28:06.337Z,190
2018-12-17T09:29:14.404Z,190
2018-12-17T09:30:22.463Z,195
2018-12-17T09:31:30.555Z,200
2018-12-17T09:32:38.573Z,200
2018-12-17T09:33:46.627Z,195
2018-12-17T09:34:54.678Z,205
2018-12-17T09:36:02.742Z,210
2018-12-17T09:37:10.788Z,220
2018-12-17T09:38:18.844Z,220
2018-12-17T09:39:26.903Z,220
2018-12-17T09:40:34.932Z,220
2018-12-17T09:41:42.999Z,210
2018-12-17T09:42:51.068Z,205
2018-12-17T09:43:59.116Z,200
2018-12-17T09:45:07.172Z,205
2018-12-17T09:46:15.196Z,205
2018-12-17T09:47:23.318Z,205
2018-12-17T09:48:31.335Z,220
2018-12-17T09:49:39.401Z,245
2018-12-17T09:50:47.448Z,250
2018-12-17T09:51:55.470Z,245
2018-12-17T09:53:03.562Z,235
2018-12-17T09:54:11.621Z,220
2018-12-17T09:55:19.665Z,200
2018-12-17T09:56:27.724Z,200
2018-12-17T09:57:35.750Z,200
2018-12-17T09:58:43.840Z,205
2018-12-17T09:59:51.884Z,200
2018-12-17T10:00:59.939Z,180
2018-12-17T10:02:07.998Z,170
2018-12-17T10:03:16.067Z,155
2018-12-17T10:04:24.112Z,175
2018-12-17T10:05:32.168Z,195
2018-12-17T10:06:40.229Z,210
2018-12-17T10:07:48.285Z,210
2018-12-17T10:08:56.454Z,210
2018-12-17T10:10:04.394Z,180
2018-12-17T10:11:12.438Z,175
2018-12-17T10:12:20.510Z,190
2018-12-17T10:13:28.563Z,225
2018-12-17T10:14:36.627Z,230
2018-12-17T10:15:44.672Z,235
2018-12-17T10:16:52.750Z,235
2018-12-17T10:18:01.382Z,235
2018-12-17T10:19:11.825Z,235
2018-12-17T10:20:16.904Z,225
2018-12-17T10:21:24.939Z,215
2018-12-17T10:22:33.277Z,215
2018-12-17T10:23:41.065Z,205
2018-12-17T10:24:49.123Z,170
2018-12-17T10:25:57.211Z,155
2018-12-17T10:27:05.208Z,155
2018-12-17T10:28:13.326Z,150
2018-12-17T10:29:21.340Z,135
2018-12-17T10:30:32.591Z,140
2018-12-17T10:31:37.480Z,145
2018-12-17T10:32:45.493Z,155
2018-12-17T10:33:53.583Z,180
2018-12-17T10:35:01.637Z,210
2018-12-17T10:36:09.691Z,255
2018-12-17T10:37:17.742Z,265
2018-12-17T10:38:25.868Z,245
2018-12-17T10:39:33.857Z,225
2018-12-17T10:40:42.447Z,225
2018-12-17T10:41:49.975Z,210
2018-12-17T10:42:58.032Z,200
2018-12-17T10:44:06.123Z,205
2018-12-17T10:45:14.123Z,200
2018-12-17T10:46:22.201Z,185
2018-12-17T10:47:30.246Z,195
2018-12-17T10:48:38.303Z,210
2018-12-17T10:49:46.346Z,210
2018-12-17T10:50:54.410Z,205
2018-12-17T10:52:02.468Z,205
2018-12-17T10:53:10.538Z,200
2018-12-17T10:54:18.582Z,190
2018-12-17T10:55:26.889Z,180
2018-12-17T10:56:34.984Z,185
2018-12-17T10:57:42.748Z,190
2018-12-17T10:58:50.808Z,200
2018-12-17T10:59:58.868Z,195
2018-12-17T11:01:06.920Z,195
2018-12-17T11:02:15.241Z,195
2018-12-17T11:03:23.326Z,195
2018-12-17T11:04:31.437Z,205
2018-12-17T11:05:39.151Z,215
2018-12-17T11:06:47.218Z,210
2018-12-17T11:07:55.226Z,205
2018-12-17T11:09:03.316Z,205
2018-12-17T11:10:11.372Z,220
2018-12-17T11:11:19.427Z,225
2018-12-17T11:12:27.490Z,220
2018-12-17T11:13:35.637Z,215
2018-12-17T11:14:43.606Z,220
2018-12-17T11:15:51.656Z,215
2018-12-17T11:16:59.708Z,205
2018-12-17T11:18:07.758Z,210
2018-12-17T11:19:15.983Z,225
2018-12-17T11:20:23.937Z,250
2018-12-17T11:21:32.340Z,230
2018-12-17T11:22:40.338Z,225
2018-12-17T11:23:48.454Z,220
2018-12-17T11:24:56.623Z,215
2018-12-17T11:26:04.480Z,220
2018-12-17T11:27:12.218Z,225
2018-12-17T11:28:20.263Z,205
2018-12-17T11:29:28.353Z,205
2018-12-17T11:30:36.388Z,220
2018-12-17T11:31:44.429Z,210
2018-12-17T11:32:52.493Z,210
2018-12-17T11:34:00.567Z,205
2018-12-17T11:35:09.034Z,205
2018-12-17T11:36:17.035Z,200
2018-12-17T11:37:24.713Z,195
2018-12-17T11:38:32.864Z,215
2018-12-17T11:39:40.827Z,225
2018-12-17T11:40:48.891Z,215
2018-12-17T11:41:57.364Z,215
2018-12-17T11:43:04.991Z,220
2018-12-17T11:44:13.066Z,220
2018-12-17T11:45:21.126Z,215
2018-12-17T11:46:29.182Z,205
2018-12-17T11:47:37.242Z,200
2018-12-17T11:48:45.266Z,205
2018-12-17T11:49:53.336Z,205
2018-12-17T11:51:01.428Z,210
2018-12-17T11:52:09.456Z,215
2018-12-17T11:53:17.519Z,220
2018-12-17T11:54:25.539Z,220
2018-12-17T11:55:33.628Z,220
2018-12-17T11:56:41.675Z,220
2018-12-17T11:57:49.775Z,210
2018-12-17T11:58:57.788Z,215
2018-12-17T12:00:05.827Z,225
2018-12-17T12:01:13.907Z,215
2018-12-17T12:02:21.984Z,220
2018-12-17T12:03:30.030Z,210
2018-12-17T12:04:38.070Z,210
2018-12-17T12:05:46.157Z,205
2018-12-17T12:06:54.185Z,200
2018-12-17T12:08:02.229Z,195
2018-12-17T12:09:10.307Z,195
2018-12-17T12:10:18.364Z,200
2018-12-17T12:11:26.430Z,195
2018-12-17T12:12:34.487Z,200
2018-12-17T12:13:42.523Z,200
2018-12-17T12:14:50.604Z,195
2018-12-17T12:15:58.648Z,205
2018-12-17T12:17:06.711Z,200
2018-12-17T12:18:14.758Z,200
2018-12-17T12:19:23.586Z,210
2018-12-17T12:20:30.859Z,220
2018-12-17T12:21:38.927Z,220
2018-12-17T12:22:46.993Z,210
2018-12-17T12:23:55.020Z,205
2018-12-17T12:25:03.095Z,195
2018-12-17T12:26:11.142Z,190
2018-12-17T12:27:19.213Z,190
2018-12-17T12:28:27.316Z,195
2018-12-17T12:29:35.299Z,195
2018-12-17T12:30:43.395Z,200
2018-12-17T12:31:51.443Z,195
2018-12-17T12:32:59.521Z,200
2018-12-17T12:34:07.568Z,210
2018-12-17T12:35:15.583Z,230
2018-12-17T12:36:23.665Z,235
2018-12-17T12:37:31.726Z,240
2018-12-17T12:38:39.787Z,240
2018-12-17T12:39:47.827Z,230
2018-12-17T12:40:55.874Z,215
2018-12-17T12:42:03.945Z,210
2018-12-17T12:43:12.001Z,210
2018-12-17T12:44:20.075Z,205
2018-12-17T12:45:28.122Z,195
2018-12-17T12:46:36.180Z,190
2018-12-17T12:47:44.248Z,190
2018-12-17T12:48:52.308Z,180
2018-12-17T12:50:00.371Z,170
2018-12-17T12:51:08.422Z,160
2018-12-17T12:52:16.480Z,155
2018-12-17T12:53:24.530Z,145
2018-12-17T12:54:32.575Z,145
2018-12-17T12:55:40.643Z,145
2018-12-17T12:56:48.687Z,145
2018-12-17T12:58:03.366Z,140
2018-12-17T12:59:04.836Z,135
2018-12-17T13:00:12.858Z,130
2018-12-17T13:01:20.918Z,130
2018-12-17T13:02:28.983Z,130
2018-12-17T13:03:37.037Z,130
2018-12-17T13:04:45.071Z,135
2018-12-17T13:05:53.145Z,140
2018-12-17T13:07:01.199Z,140
2018-12-17T13:08:09.268Z,135
2018-12-17T13:09:17.340Z,135
2018-12-17T13:10:25.933Z,135
2018-12-17T13:11:33.929Z,140
2018-12-17T13:12:41.491Z,135
2018-12-17T13:13:49.635Z,135
2018-12-17T13:14:57.972Z,130
2018-12-17T13:16:05.637Z,130
2018-12-17T13:17:13.867Z,125
2018-12-17T13:18:22.118Z,120
2018-12-17T13:19:29.834Z,120
2018-12-17T13:20:38.171Z,125
2018-12-17T13:21:45.940Z,130
2018-12-17T13:22:54.390Z,125
2018-12-17T13:24:02.042Z,130
2018-12-17T13:25:10.111Z,125
2018-12-17T13:26:18.604Z,115
2018-12-17T13:27:26.233Z,110
2018-12-17T13:28:34.318Z,105
2018-12-17T13:29:42.332Z,105
2018-12-17T13:30:50.601Z,110
2018-12-17T13:31:58.451Z,105
2018-12-17T13:33:06.499Z,115
2018-12-17T13:34:14.561Z,115
2018-12-17T13:35:22.610Z,105
2018-12-17T13:36:31.063Z,100
2018-12-17T13:37:39.023Z,95
2018-12-17T13:38:47.206Z,95
2018-12-17T13:39:54.833Z,95
2018-12-17T13:41:02.919Z,95
2018-12-17T13:42:10.939Z,95
2018-12-17T13:43:19.053Z,100
2018-12-17T13:44:27.064Z,100
2018-12-17T13:45:35.163Z,105
2018-12-17T13:46:43.186Z,105
2018-12-17T13:47:51.685Z,105
2018-12-17T13:48:59.299Z,110
2018-12-17T13:50:07.784Z,120
2018-12-17T13:51:15.377Z,130
2018-12-17T13:52:23.766Z,135
2018-12-17T13:53:31.635Z,135
2018-12-17T13:54:39.918Z,115
2018-12-17T13:55:47.644Z,105
2018-12-17T13:56:55.767Z,95
2018-12-17T13:58:03.756Z,110
2018-12-17T13:59:11.808Z,115
2018-12-17T14:00:19.924Z,115
2018-12-17T14:01:28.307Z,110
2018-12-17T14:02:36.119Z,105
2018-12-17T14:03:44.024Z,100
2018-12-17T14:04:52.092Z,110
2018-12-17T14:06:00.399Z,105
2018-12-17T14:07:08.354Z,110
2018-12-17T14:08:16.267Z,115
2018-12-17T14:09:24.515Z,105
2018-12-17T14:10:32.370Z,120
2018-12-17T14:11:40.423Z,105
2018-12-17T14:12:48.482Z,100
2018-12-17T14:13:56.520Z,105
2018-12-17T14:15:04.712Z,95
2018-12-17T14:16:12.767Z,95
2018-12-17T14:17:20.940Z,95
2018-12-17T14:18:29.187Z,95
2018-12-17T14:19:37.212Z,85
2018-12-17T14:20:44.851Z,90
2018-12-17T14:21:53.175Z,85
2018-12-17T14:23:01.324Z,75
2018-12-17T14:24:09.279Z,80
2018-12-17T14:25:17.455Z,80
2018-12-17T14:26:25.126Z,70
2018-12-17T14:27:33.214Z,65
2018-12-17T14:28:41.600Z,60
2018-12-17T14:29:49.328Z,60
2018-12-17T14:30:57.800Z,55
2018-12-17T14:32:05.820Z,55
2018-12-17T14:33:13.474Z,55
2018-12-17T14:34:21.571Z,50
2018-12-17T14:35:29.871Z,45
2018-12-17T14:36:37.674Z,40
2018-12-17T14:37:45.682Z,40
2018-12-17T14:38:53.774Z,40
2018-12-17T14:40:01.893Z,45
2018-12-17T14:41:09.885Z,45
2018-12-17T14:42:18.158Z,40
2018-12-17T14:43:26.313Z,40
2018-12-17T14:44:34.062Z,40
2018-12-17T14:45:42.476Z,40
2018-12-17T14:46:50.167Z,35
2018-12-17T14:47:58.215Z,35
2018-12-17T14:49:06.276Z,35
2018-12-17T14:50:14.326Z,40
2018-12-17T14:51:22.387Z,40
2018-12-17T14:52:30.755Z,40
2018-12-17T14:53:38.506Z,45
2018-12-17T14:54:46.574Z,45
2018-12-17T14:55:54.610Z,40
2018-12-17T14:57:02.670Z,40
2018-12-17T14:58:11.235Z,40
2018-12-17T14:59:18.877Z,40
2018-12-17T15:00:26.931Z,35
2018-12-17T15:01:35.878Z,35
2018-12-17T15:02:42.973Z,30
2018-12-17T15:03:50.994Z,30
2018-12-17T15:04:59.068Z,30
2018-12-17T15:06:07.111Z,30
2018-12-17T15:07:15.152Z,25
2018-12-17T15:08:23.242Z,25
2018-12-17T15:09:31.412Z,25
2018-12-17T15:10:39.342Z,20
2018-12-17T15:11:47.396Z,20
2018-12-17T15:12:55.423Z,20
2018-12-17T15:14:03.516Z,15
2018-12-17T15:15:11.569Z,15
2018-12-17T15:16:19.618Z,15
2018-12-17T15:17:27.674Z,15
2018-12-17T15:18:35.704Z,15
2018-12-17T15:19:43.789Z,15
2018-12-17T15:20:51.852Z,10
2018-12-17T15:21:59.896Z,10
2018-12-17T15:23:07.950Z,10
2018-12-17T15:24:16.025Z,5
2018-12-17T15:25:24.086Z,5
2018-12-17T15:26:32.124Z,5
2018-12-17T15:27:40.194Z,5
2018-12-17T15:28:48.241Z,5
2018-12-17T15:29:56.291Z,5
2018-12-17T15:31:04.354Z,5
2018-12-17T15:32:12.407Z,0
2018-12-17T15:33:20.451Z,0
2018-12-17T15:34:28.503Z,0
2018-12-17T15:35:36.569Z,0
2018-12-17T15:36:44.616Z,0
2018-12-17T15:37:52.672Z,0
2018-12-17T15:39:00.744Z,0
2018-12-17T15:40:08.792Z,0
2018-12-17T15:41:16.848Z,0
2018-12-17T15:42:24.888Z,0
2018-12-17T15:43:32.955Z,0
2018-12-17T15:44:41.000Z,0
2018-12-17T15:45:49.064Z,0
2018-12-17T15:46:57.127Z,0
2018-12-17T15:48:05.164Z,0
2018-12-17T15:49:13.230Z,0
2018-12-17T15:50:21.295Z,0
2018-12-17T15:51:29.354Z,0
2018-12-17T15:52:37.401Z,0
2018-12-17T15:53:45.434Z,0
2018-12-17T15:54:53.504Z,0
2018-12-17T15:56:01.565Z,0
2018-12-17T15:57:09.622Z,0
2018-12-17T15:58:17.675Z,0
2018-12-17T15:59:25.707Z,0
2018-12-17T16:00:33.786Z,0
2018-12-17T16:01:41.840Z,0
2018-12-17T16:02:49.900Z,0
2018-12-17T16:03:57.932Z,0
2018-12-17T16:05:06.001Z,0
2018-12-17T16:06:14.081Z,0
2018-12-17T16:07:22.110Z,0
2018-12-17T16:08:30.182Z,0
2018-12-17T16:09:38.230Z,0
2018-12-17T16:10:46.329Z,0
2018-12-17T16:11:54.341Z,0
2018-12-17T16:13:02.404Z,0
2018-12-17T16:14:10.450Z,0
2018-12-17T16:15:18.521Z,0
2018-12-17T16:16:26.544Z,0